sensor_id;sensor_type;location;lat;lon;timestamp;P1;durP1;ratioP1;P2;durP2;ratioP2
26502;SDS011;14177;51.520;6.764;2023-03-30T00:02:18;9.60;;;3.40;;
26502;SDS011;14177;51.520;6.764;2023-03-30T00:04:48;7.43;;;3.50;;
26502;SDS011;14177;51.520;6.764;2023-03-30T00:07:19;15.93;;;3.85;;
26502;SDS011;14177;51.520;6.764;2023-03-30T00:09:47;7.78;;;3.30;;
26502;SDS011;14177;51.520;6.764;2023-03-30T00:12:15;10.88;;;3.53;;
26502;SDS011;14177;51.520;6.764;2023-03-30T00:14:46;7.65;;;3.45;;
26502;SDS011;14177;51.520;6.764;2023-03-30T00:17:15;10.93;;;3.08;;
26502;SDS011;14177;51.520;6.764;2023-03-30T00:19:46;8.57;;;3.15;;
26502;SDS011;14177;51.520;6.764;2023-03-30T00:22:15;12.68;;;3.20;;
26502;SDS011;14177;51.520;6.764;2023-03-30T00:24:43;8.20;;;3.25;;
26502;SDS011;14177;51.520;6.764;2023-03-30T00:27:11;8.38;;;2.72;;
26502;SDS011;14177;51.520;6.764;2023-03-30T00:29:40;6.78;;;2.90;;
26502;SDS011;14177;51.520;6.764;2023-03-30T00:32:09;12.57;;;3.20;;
26502;SDS011;14177;51.520;6.764;2023-03-30T00:34:37;7.93;;;3.33;;
26502;SDS011;14177;51.520;6.764;2023-03-30T00:37:08;8.38;;;2.83;;
26502;SDS011;14177;51.520;6.764;2023-03-30T00:39:40;9.15;;;3.28;;
26502;SDS011;14177;51.520;6.764;2023-03-30T00:42:12;10.45;;;3.53;;
26502;SDS011;14177;51.520;6.764;2023-03-30T00:51:08;10.65;;;4.10;;
26502;SDS011;14177;51.520;6.764;2023-03-30T00:53:41;11.27;;;4.57;;
26502;SDS011;14177;51.520;6.764;2023-03-30T00:56:20;7.22;;;3.80;;
26502;SDS011;14177;51.520;6.764;2023-03-30T00:58:55;11.35;;;3.33;;
26502;SDS011;14177;51.520;6.764;2023-03-30T01:01:25;7.03;;;3.05;;
26502;SDS011;14177;51.520;6.764;2023-03-30T01:03:59;7.25;;;3.67;;
26502;SDS011;14177;51.520;6.764;2023-03-30T01:06:29;11.48;;;3.90;;
26502;SDS011;14177;51.520;6.764;2023-03-30T01:09:01;6.82;;;2.95;;
26502;SDS011;14177;51.520;6.764;2023-03-30T01:11:29;11.65;;;3.88;;
26502;SDS011;14177;51.520;6.764;2023-03-30T01:13:59;12.00;;;4.15;;
26502;SDS011;14177;51.520;6.764;2023-03-30T01:39:53;9.82;;;3.50;;
26502;SDS011;14177;51.520;6.764;2023-03-30T01:42:47;12.85;;;3.30;;
26502;SDS011;14177;51.520;6.764;2023-03-30T01:48:40;10.68;;;3.60;;
26502;SDS011;14177;51.520;6.764;2023-03-30T01:51:18;9.95;;;3.50;;
26502;SDS011;14177;51.520;6.764;2023-03-30T01:53:54;7.78;;;3.35;;
26502;SDS011;14177;51.520;6.764;2023-03-30T01:56:37;6.97;;;3.10;;
26502;SDS011;14177;51.520;6.764;2023-03-30T01:59:27;10.10;;;3.75;;
26502;SDS011;14177;51.520;6.764;2023-03-30T02:02:02;17.25;;;4.15;;
26502;SDS011;14177;51.520;6.764;2023-03-30T02:04:33;17.80;;;4.30;;
26502;SDS011;14177;51.520;6.764;2023-03-30T02:07:10;17.58;;;4.72;;
26502;SDS011;14177;51.520;6.764;2023-03-30T02:09:46;19.25;;;5.00;;
26502;SDS011;14177;51.520;6.764;2023-03-30T02:12:19;18.08;;;5.18;;
26502;SDS011;14177;51.520;6.764;2023-03-30T02:14:47;13.15;;;4.47;;
26502;SDS011;14177;51.520;6.764;2023-03-30T02:17:21;16.88;;;5.28;;
26502;SDS011;14177;51.520;6.764;2023-03-30T02:19:50;18.08;;;5.65;;
26502;SDS011;14177;51.520;6.764;2023-03-30T02:22:22;17.75;;;5.93;;
26502;SDS011;14177;51.520;6.764;2023-03-30T02:24:52;14.55;;;5.13;;
26502;SDS011;14177;51.520;6.764;2023-03-30T02:27:23;11.95;;;5.30;;
26502;SDS011;14177;51.520;6.764;2023-03-30T02:29:53;14.05;;;5.20;;
26502;SDS011;14177;51.520;6.764;2023-03-30T02:32:23;13.90;;;4.90;;
26502;SDS011;14177;51.520;6.764;2023-03-30T02:38:36;13.45;;;4.80;;
26502;SDS011;14177;51.520;6.764;2023-03-30T02:47:03;19.42;;;5.07;;
26502;SDS011;14177;51.520;6.764;2023-03-30T02:50:03;16.80;;;3.78;;
26502;SDS011;14177;51.520;6.764;2023-03-30T02:52:51;12.07;;;3.53;;
26502;SDS011;14177;51.520;6.764;2023-03-30T02:58:41;10.18;;;3.25;;
26502;SDS011;14177;51.520;6.764;2023-03-30T03:01:42;12.40;;;2.55;;
26502;SDS011;14177;51.520;6.764;2023-03-30T03:04:24;7.72;;;3.22;;
26502;SDS011;14177;51.520;6.764;2023-03-30T03:07:14;5.80;;;2.30;;
26502;SDS011;14177;51.520;6.764;2023-03-30T03:09:42;7.78;;;2.60;;
26502;SDS011;14177;51.520;6.764;2023-03-30T03:12:09;5.72;;;2.70;;
26502;SDS011;14177;51.520;6.764;2023-03-30T03:14:36;10.70;;;2.75;;
26502;SDS011;14177;51.520;6.764;2023-03-30T03:17:04;8.90;;;2.60;;
26502;SDS011;14177;51.520;6.764;2023-03-30T03:19:36;7.13;;;2.45;;
26502;SDS011;14177;51.520;6.764;2023-03-30T03:22:03;5.90;;;2.30;;
26502;SDS011;14177;51.520;6.764;2023-03-30T03:24:34;8.00;;;1.92;;
26502;SDS011;14177;51.520;6.764;2023-03-30T03:27:13;9.50;;;2.63;;
26502;SDS011;14177;51.520;6.764;2023-03-30T03:30:03;10.80;;;2.75;;
26502;SDS011;14177;51.520;6.764;2023-03-30T03:32:37;5.88;;;1.90;;
26502;SDS011;14177;51.520;6.764;2023-03-30T03:35:05;9.93;;;2.80;;
26502;SDS011;14177;51.520;6.764;2023-03-30T03:37:33;9.10;;;2.50;;
26502;SDS011;14177;51.520;6.764;2023-03-30T03:40:01;10.02;;;3.20;;
26502;SDS011;14177;51.520;6.764;2023-03-30T03:42:31;11.98;;;3.85;;
26502;SDS011;14177;51.520;6.764;2023-03-30T03:45:07;16.38;;;6.30;;
26502;SDS011;14177;51.520;6.764;2023-03-30T03:47:43;25.27;;;8.88;;
26502;SDS011;14177;51.520;6.764;2023-03-30T03:50:11;27.00;;;9.77;;
26502;SDS011;14177;51.520;6.764;2023-03-30T03:52:38;32.88;;;10.70;;
26502;SDS011;14177;51.520;6.764;2023-03-30T03:55:05;27.02;;;8.27;;
26502;SDS011;14177;51.520;6.764;2023-03-30T03:57:36;30.55;;;9.90;;
26502;SDS011;14177;51.520;6.764;2023-03-30T04:00:04;19.98;;;7.20;;
26502;SDS011;14177;51.520;6.764;2023-03-30T04:02:43;19.63;;;4.38;;
26502;SDS011;14177;51.520;6.764;2023-03-30T04:05:11;8.90;;;2.33;;
26502;SDS011;14177;51.520;6.764;2023-03-30T04:07:38;5.75;;;2.00;;
26502;SDS011;14177;51.520;6.764;2023-03-30T04:10:07;6.45;;;2.22;;
26502;SDS011;14177;51.520;6.764;2023-03-30T04:12:41;6.47;;;1.80;;
26502;SDS011;14177;51.520;6.764;2023-03-30T04:15:19;8.40;;;2.67;;
26502;SDS011;14177;51.520;6.764;2023-03-30T04:18:05;8.00;;;2.70;;
26502;SDS011;14177;51.520;6.764;2023-03-30T04:20:49;10.32;;;2.70;;
26502;SDS011;14177;51.520;6.764;2023-03-30T04:23:32;10.07;;;2.97;;
26502;SDS011;14177;51.520;6.764;2023-03-30T04:26:26;9.60;;;2.90;;
26502;SDS011;14177;51.520;6.764;2023-03-30T04:28:54;10.63;;;2.40;;
26502;SDS011;14177;51.520;6.764;2023-03-30T04:31:41;7.35;;;2.58;;
26502;SDS011;14177;51.520;6.764;2023-03-30T04:34:18;10.60;;;3.10;;
26502;SDS011;14177;51.520;6.764;2023-03-30T04:37:01;8.40;;;2.67;;
26502;SDS011;14177;51.520;6.764;2023-03-30T04:39:57;7.95;;;2.22;;
26502;SDS011;14177;51.520;6.764;2023-03-30T04:42:43;7.47;;;2.28;;
26502;SDS011;14177;51.520;6.764;2023-03-30T04:45:33;8.73;;;2.00;;
26502;SDS011;14177;51.520;6.764;2023-03-30T04:48:26;7.35;;;2.00;;
26502;SDS011;14177;51.520;6.764;2023-03-30T04:51:20;5.68;;;1.90;;
26502;SDS011;14177;51.520;6.764;2023-03-30T04:57:01;2.70;;;1.35;;
26502;SDS011;14177;51.520;6.764;2023-03-30T05:02:58;7.68;;;1.55;;
26502;SDS011;14177;51.520;6.764;2023-03-30T05:05:51;5.93;;;2.13;;
26502;SDS011;14177;51.520;6.764;2023-03-30T05:08:37;11.00;;;2.60;;
26502;SDS011;14177;51.520;6.764;2023-03-30T05:11:23;8.02;;;2.33;;
26502;SDS011;14177;51.520;6.764;2023-03-30T05:16:25;6.97;;;2.22;;
26502;SDS011;14177;51.520;6.764;2023-03-30T05:19:22;8.55;;;2.58;;
26502;SDS011;14177;51.520;6.764;2023-03-30T05:21:53;8.35;;;2.85;;
26502;SDS011;14177;51.520;6.764;2023-03-30T05:24:49;7.65;;;2.22;;
26502;SDS011;14177;51.520;6.764;2023-03-30T05:27:30;10.88;;;3.28;;
26502;SDS011;14177;51.520;6.764;2023-03-30T05:30:20;12.80;;;3.25;;
26502;SDS011;14177;51.520;6.764;2023-03-30T05:33:06;14.93;;;4.22;;
26502;SDS011;14177;51.520;6.764;2023-03-30T05:35:51;16.55;;;5.00;;
26502;SDS011;14177;51.520;6.764;2023-03-30T05:38:34;20.92;;;6.55;;
26502;SDS011;14177;51.520;6.764;2023-03-30T05:41:24;20.58;;;6.97;;
26502;SDS011;14177;51.520;6.764;2023-03-30T05:44:13;27.48;;;8.98;;
26502;SDS011;14177;51.520;6.764;2023-03-30T05:47:00;18.27;;;4.65;;
26502;SDS011;14177;51.520;6.764;2023-03-30T05:49:59;14.60;;;2.80;;
26502;SDS011;14177;51.520;6.764;2023-03-30T05:52:37;14.85;;;2.53;;
26502;SDS011;14177;51.520;6.764;2023-03-30T05:55:20;10.95;;;2.90;;
26502;SDS011;14177;51.520;6.764;2023-03-30T05:58:12;8.60;;;3.33;;
26502;SDS011;14177;51.520;6.764;2023-03-30T06:01:13;7.95;;;3.30;;
26502;SDS011;14177;51.520;6.764;2023-03-30T06:03:43;11.93;;;3.88;;
26502;SDS011;14177;51.520;6.764;2023-03-30T06:06:10;15.93;;;5.72;;
26502;SDS011;14177;51.520;6.764;2023-03-30T06:08:39;14.00;;;4.35;;
26502;SDS011;14177;51.520;6.764;2023-03-30T06:11:11;18.33;;;5.75;;
26502;SDS011;14177;51.520;6.764;2023-03-30T06:14:00;13.95;;;4.82;;
26502;SDS011;14177;51.520;6.764;2023-03-30T06:16:28;17.02;;;5.57;;
26502;SDS011;14177;51.520;6.764;2023-03-30T06:18:58;14.82;;;4.30;;
26502;SDS011;14177;51.520;6.764;2023-03-30T06:21:25;16.02;;;5.85;;
26502;SDS011;14177;51.520;6.764;2023-03-30T06:24:12;10.60;;;3.28;;
26502;SDS011;14177;51.520;6.764;2023-03-30T06:26:40;12.45;;;3.95;;
26502;SDS011;14177;51.520;6.764;2023-03-30T06:29:08;14.30;;;3.17;;
26502;SDS011;14177;51.520;6.764;2023-03-30T06:31:36;11.35;;;2.88;;
26502;SDS011;14177;51.520;6.764;2023-03-30T06:34:23;7.85;;;2.45;;
26502;SDS011;14177;51.520;6.764;2023-03-30T06:36:50;3.92;;;1.73;;
26502;SDS011;14177;51.520;6.764;2023-03-30T06:39:21;3.58;;;1.70;;
26502;SDS011;14177;51.520;6.764;2023-03-30T06:41:49;7.05;;;1.85;;
26502;SDS011;14177;51.520;6.764;2023-03-30T06:44:38;9.30;;;2.13;;
26502;SDS011;14177;51.520;6.764;2023-03-30T06:47:10;6.75;;;2.15;;
26502;SDS011;14177;51.520;6.764;2023-03-30T06:49:37;7.35;;;1.58;;
26502;SDS011;14177;51.520;6.764;2023-03-30T06:52:34;7.07;;;1.98;;
26502;SDS011;14177;51.520;6.764;2023-03-30T06:55:03;5.18;;;1.63;;
26502;SDS011;14177;51.520;6.764;2023-03-30T06:57:31;5.90;;;1.95;;
26502;SDS011;14177;51.520;6.764;2023-03-30T07:00:00;6.40;;;1.77;;
26502;SDS011;14177;51.520;6.764;2023-03-30T07:02:56;7.68;;;1.70;;
26502;SDS011;14177;51.520;6.764;2023-03-30T07:05:36;11.13;;;2.40;;
26502;SDS011;14177;51.520;6.764;2023-03-30T07:08:14;5.05;;;1.90;;
26502;SDS011;14177;51.520;6.764;2023-03-30T07:10:49;6.00;;;1.70;;
26502;SDS011;14177;51.520;6.764;2023-03-30T07:13:18;7.53;;;2.25;;
26502;SDS011;14177;51.520;6.764;2023-03-30T07:15:51;5.95;;;2.22;;
26502;SDS011;14177;51.520;6.764;2023-03-30T07:18:18;14.80;;;2.97;;
26502;SDS011;14177;51.520;6.764;2023-03-30T07:20:45;10.25;;;2.55;;
26502;SDS011;14177;51.520;6.764;2023-03-30T07:23:14;12.82;;;3.30;;
26502;SDS011;14177;51.520;6.764;2023-03-30T07:25:44;12.90;;;3.42;;
26502;SDS011;14177;51.520;6.764;2023-03-30T07:28:16;15.30;;;3.53;;
26502;SDS011;14177;51.520;6.764;2023-03-30T07:30:44;4.30;;;1.70;;
26502;SDS011;14177;51.520;6.764;2023-03-30T07:33:11;5.03;;;1.67;;
26502;SDS011;14177;51.520;6.764;2023-03-30T07:35:44;9.15;;;2.67;;
26502;SDS011;14177;51.520;6.764;2023-03-30T07:38:16;5.15;;;1.77;;
26502;SDS011;14177;51.520;6.764;2023-03-30T07:40:49;7.72;;;1.73;;
26502;SDS011;14177;51.520;6.764;2023-03-30T07:43:18;4.57;;;1.58;;
26502;SDS011;14177;51.520;6.764;2023-03-30T07:45:44;4.40;;;1.48;;
26502;SDS011;14177;51.520;6.764;2023-03-30T07:48:20;6.53;;;1.60;;
26502;SDS011;14177;51.520;6.764;2023-03-30T07:50:46;3.72;;;1.40;;
26502;SDS011;14177;51.520;6.764;2023-03-30T07:53:13;6.38;;;1.63;;
26502;SDS011;14177;51.520;6.764;2023-03-30T07:55:42;8.05;;;1.65;;
26502;SDS011;14177;51.520;6.764;2023-03-30T07:58:15;3.58;;;1.38;;
26502;SDS011;14177;51.520;6.764;2023-03-30T08:00:42;3.92;;;1.40;;
26502;SDS011;14177;51.520;6.764;2023-03-30T08:03:25;6.40;;;1.20;;
26502;SDS011;14177;51.520;6.764;2023-03-30T08:05:57;5.00;;;1.60;;
26502;SDS011;14177;51.520;6.764;2023-03-30T08:08:33;5.57;;;1.52;;
26502;SDS011;14177;51.520;6.764;2023-03-30T08:11:06;6.90;;;1.60;;
26502;SDS011;14177;51.520;6.764;2023-03-30T08:13:54;4.10;;;1.25;;
26502;SDS011;14177;51.520;6.764;2023-03-30T08:20:19;6.68;;;1.90;;
26502;SDS011;14177;51.520;6.764;2023-03-30T08:23:03;4.38;;;1.63;;
26502;SDS011;14177;51.520;6.764;2023-03-30T08:25:31;4.32;;;1.80;;
26502;SDS011;14177;51.520;6.764;2023-03-30T08:27:59;3.70;;;1.48;;
26502;SDS011;14177;51.520;6.764;2023-03-30T08:30:27;4.28;;;1.80;;
26502;SDS011;14177;51.520;6.764;2023-03-30T08:32:54;3.70;;;1.35;;
26502;SDS011;14177;51.520;6.764;2023-03-30T08:35:22;5.63;;;1.42;;
26502;SDS011;14177;51.520;6.764;2023-03-30T08:37:49;4.68;;;1.42;;
26502;SDS011;14177;51.520;6.764;2023-03-30T08:40:17;5.43;;;1.30;;
26502;SDS011;14177;51.520;6.764;2023-03-30T08:43:02;5.20;;;1.50;;
26502;SDS011;14177;51.520;6.764;2023-03-30T08:45:42;6.05;;;1.42;;
26502;SDS011;14177;51.520;6.764;2023-03-30T08:48:13;4.85;;;1.27;;
26502;SDS011;14177;51.520;6.764;2023-03-30T08:51:00;7.28;;;1.90;;
26502;SDS011;14177;51.520;6.764;2023-03-30T08:53:37;7.10;;;1.60;;
26502;SDS011;14177;51.520;6.764;2023-03-30T08:56:05;7.25;;;1.25;;
26502;SDS011;14177;51.520;6.764;2023-03-30T09:07:03;9.70;;;1.52;;
26502;SDS011;14177;51.520;6.764;2023-03-30T09:09:41;9.57;;;1.77;;
26502;SDS011;14177;51.520;6.764;2023-03-30T09:17:46;7.43;;;1.23;;
26502;SDS011;14177;51.520;6.764;2023-03-30T09:20:22;9.73;;;1.77;;
26502;SDS011;14177;51.520;6.764;2023-03-30T09:22:53;9.70;;;1.58;;
26502;SDS011;14177;51.520;6.764;2023-03-30T09:25:29;7.47;;;1.75;;
26502;SDS011;14177;51.520;6.764;2023-03-30T09:33:56;9.70;;;1.73;;
26502;SDS011;14177;51.520;6.764;2023-03-30T09:39:27;7.05;;;1.60;;
26502;SDS011;14177;51.520;6.764;2023-03-30T09:47:52;6.55;;;1.33;;
26502;SDS011;14177;51.520;6.764;2023-03-30T09:50:21;9.80;;;1.30;;
26502;SDS011;14177;51.520;6.764;2023-03-30T10:00:45;10.48;;;1.70;;
26502;SDS011;14177;51.520;6.764;2023-03-30T10:03:29;8.98;;;1.73;;
26502;SDS011;14177;51.520;6.764;2023-03-30T10:06:08;5.72;;;1.55;;
26502;SDS011;14177;51.520;6.764;2023-03-30T10:08:42;9.35;;;1.58;;
26502;SDS011;14177;51.520;6.764;2023-03-30T10:14:05;6.40;;;1.63;;
26502;SDS011;14177;51.520;6.764;2023-03-30T10:16:54;7.53;;;1.50;;
26502;SDS011;14177;51.520;6.764;2023-03-30T10:19:24;4.15;;;1.60;;
26502;SDS011;14177;51.520;6.764;2023-03-30T10:21:56;7.70;;;1.50;;
26502;SDS011;14177;51.520;6.764;2023-03-30T10:24:33;6.90;;;1.88;;
26502;SDS011;14177;51.520;6.764;2023-03-30T10:27:07;10.45;;;1.83;;
26502;SDS011;14177;51.520;6.764;2023-03-30T10:29:48;7.63;;;1.58;;
26502;SDS011;14177;51.520;6.764;2023-03-30T10:32:19;7.65;;;1.63;;
26502;SDS011;14177;51.520;6.764;2023-03-30T10:34:52;6.88;;;1.80;;
26502;SDS011;14177;51.520;6.764;2023-03-30T10:37:33;8.15;;;1.90;;
26502;SDS011;14177;51.520;6.764;2023-03-30T10:40:13;12.45;;;1.98;;
26502;SDS011;14177;51.520;6.764;2023-03-30T10:42:50;9.57;;;1.50;;
26502;SDS011;14177;51.520;6.764;2023-03-30T10:51:11;12.95;;;1.80;;
26502;SDS011;14177;51.520;6.764;2023-03-30T10:56:45;12.80;;;2.60;;
26502;SDS011;14177;51.520;6.764;2023-03-30T10:59:27;9.07;;;2.00;;
26502;SDS011;14177;51.520;6.764;2023-03-30T11:02:47;13.60;;;2.38;;
26502;SDS011;14177;51.520;6.764;2023-03-30T11:05:46;10.70;;;2.03;;
26502;SDS011;14177;51.520;6.764;2023-03-30T11:08:20;7.10;;;1.73;;
26502;SDS011;14177;51.520;6.764;2023-03-30T11:10:55;9.90;;;1.98;;
26502;SDS011;14177;51.520;6.764;2023-03-30T11:13:27;10.98;;;2.22;;
26502;SDS011;14177;51.520;6.764;2023-03-30T11:19:02;9.48;;;1.98;;
26502;SDS011;14177;51.520;6.764;2023-03-30T11:24:35;14.57;;;2.00;;
26502;SDS011;14177;51.520;6.764;2023-03-30T11:27:15;10.60;;;1.90;;
26502;SDS011;14177;51.520;6.764;2023-03-30T11:30:28;12.05;;;1.65;;
26502;SDS011;14177;51.520;6.764;2023-03-30T11:33:06;12.23;;;2.15;;
26502;SDS011;14177;51.520;6.764;2023-03-30T11:35:54;9.82;;;1.92;;
26502;SDS011;14177;51.520;6.764;2023-03-30T11:38:42;15.50;;;2.25;;
26502;SDS011;14177;51.520;6.764;2023-03-30T11:41:27;11.93;;;1.98;;
26502;SDS011;14177;51.520;6.764;2023-03-30T11:44:12;6.22;;;1.20;;
26502;SDS011;14177;51.520;6.764;2023-03-30T11:49:30;11.27;;;1.90;;
26502;SDS011;14177;51.520;6.764;2023-03-30T11:58:43;8.75;;;1.65;;
26502;SDS011;14177;51.520;6.764;2023-03-30T12:04:26;9.60;;;1.58;;
26502;SDS011;14177;51.520;6.764;2023-03-30T12:07:04;7.30;;;2.13;;
26502;SDS011;14177;51.520;6.764;2023-03-30T12:09:51;11.73;;;2.35;;
26502;SDS011;14177;51.520;6.764;2023-03-30T12:12:32;11.30;;;1.90;;
26502;SDS011;14177;51.520;6.764;2023-03-30T12:24:14;11.98;;;2.15;;
26502;SDS011;14177;51.520;6.764;2023-03-30T12:26:54;9.20;;;1.90;;
26502;SDS011;14177;51.520;6.764;2023-03-30T12:29:42;10.13;;;2.72;;
26502;SDS011;14177;51.520;6.764;2023-03-30T12:34:56;9.27;;;1.50;;
26502;SDS011;14177;51.520;6.764;2023-03-30T12:40:02;16.10;;;2.05;;
26502;SDS011;14177;51.520;6.764;2023-03-30T12:43:06;10.13;;;1.58;;
26502;SDS011;14177;51.520;6.764;2023-03-30T12:51:52;6.03;;;1.40;;
26502;SDS011;14177;51.520;6.764;2023-03-30T12:57:56;3.72;;;1.42;;
26502;SDS011;14177;51.520;6.764;2023-03-30T13:04:36;6.20;;;2.03;;
26502;SDS011;14177;51.520;6.764;2023-03-30T13:07:22;7.65;;;1.90;;
26502;SDS011;14177;51.520;6.764;2023-03-30T13:09:55;5.20;;;1.60;;
26502;SDS011;14177;51.520;6.764;2023-03-30T13:12:36;4.30;;;1.15;;
26502;SDS011;14177;51.520;6.764;2023-03-30T13:17:55;4.72;;;1.40;;
26502;SDS011;14177;51.520;6.764;2023-03-30T13:25:45;4.43;;;1.05;;
26502;SDS011;14177;51.520;6.764;2023-03-30T13:29:07;9.82;;;1.83;;
26502;SDS011;14177;51.520;6.764;2023-03-30T13:40:29;7.38;;;1.80;;
26502;SDS011;14177;51.520;6.764;2023-03-30T13:43:38;9.88;;;2.00;;
26502;SDS011;14177;51.520;6.764;2023-03-30T13:48:56;11.70;;;1.95;;
26502;SDS011;14177;51.520;6.764;2023-03-30T13:51:37;7.55;;;1.80;;
26502;SDS011;14177;51.520;6.764;2023-03-30T13:54:15;5.97;;;1.73;;
26502;SDS011;14177;51.520;6.764;2023-03-30T13:56:51;14.65;;;3.33;;
26502;SDS011;14177;51.520;6.764;2023-03-30T13:59:32;23.88;;;7.45;;
26502;SDS011;14177;51.520;6.764;2023-03-30T14:02:09;8.83;;;1.67;;
26502;SDS011;14177;51.520;6.764;2023-03-30T14:07:16;13.60;;;2.60;;
26502;SDS011;14177;51.520;6.764;2023-03-30T14:12:57;10.77;;;1.77;;
26502;SDS011;14177;51.520;6.764;2023-03-30T14:15:32;10.98;;;2.08;;
26502;SDS011;14177;51.520;6.764;2023-03-30T14:18:03;7.38;;;1.50;;
26502;SDS011;14177;51.520;6.764;2023-03-30T14:23:19;19.08;;;3.20;;
26502;SDS011;14177;51.520;6.764;2023-03-30T14:26:14;11.00;;;2.17;;
26502;SDS011;14177;51.520;6.764;2023-03-30T14:28:45;9.48;;;2.17;;
26502;SDS011;14177;51.520;6.764;2023-03-30T14:31:16;5.20;;;1.42;;
26502;SDS011;14177;51.520;6.764;2023-03-30T14:33:46;9.30;;;1.60;;
26502;SDS011;14177;51.520;6.764;2023-03-30T14:36:14;10.48;;;1.80;;
26502;SDS011;14177;51.520;6.764;2023-03-30T14:38:45;4.97;;;1.35;;
26502;SDS011;14177;51.520;6.764;2023-03-30T14:41:26;6.35;;;1.30;;
26502;SDS011;14177;51.520;6.764;2023-03-30T14:43:58;12.27;;;1.70;;
26502;SDS011;14177;51.520;6.764;2023-03-30T14:46:40;7.25;;;1.38;;
26502;SDS011;14177;51.520;6.764;2023-03-30T14:54:21;6.03;;;0.95;;
26502;SDS011;14177;51.520;6.764;2023-03-30T14:56:50;6.25;;;1.40;;
26502;SDS011;14177;51.520;6.764;2023-03-30T14:59:32;6.43;;;1.48;;
26502;SDS011;14177;51.520;6.764;2023-03-30T15:02:16;6.82;;;1.48;;
26502;SDS011;14177;51.520;6.764;2023-03-30T15:05:07;6.00;;;1.52;;
26502;SDS011;14177;51.520;6.764;2023-03-30T15:07:35;10.00;;;1.55;;
26502;SDS011;14177;51.520;6.764;2023-03-30T15:10:02;5.85;;;1.13;;
26502;SDS011;14177;51.520;6.764;2023-03-30T15:12:31;9.88;;;1.20;;
26502;SDS011;14177;51.520;6.764;2023-03-30T15:15:06;9.32;;;1.63;;
26502;SDS011;14177;51.520;6.764;2023-03-30T15:17:34;9.85;;;1.52;;
26502;SDS011;14177;51.520;6.764;2023-03-30T15:20:14;4.22;;;1.45;;
26502;SDS011;14177;51.520;6.764;2023-03-30T15:22:46;11.45;;;1.80;;
26502;SDS011;14177;51.520;6.764;2023-03-30T15:25:17;11.02;;;1.33;;
26502;SDS011;14177;51.520;6.764;2023-03-30T15:27:54;8.82;;;1.55;;
26502;SDS011;14177;51.520;6.764;2023-03-30T15:30:30;5.35;;;1.35;;
26502;SDS011;14177;51.520;6.764;2023-03-30T15:33:05;4.10;;;1.10;;
26502;SDS011;14177;51.520;6.764;2023-03-30T15:35:51;3.78;;;0.93;;
26502;SDS011;14177;51.520;6.764;2023-03-30T15:38:27;12.52;;;1.25;;
26502;SDS011;14177;51.520;6.764;2023-03-30T15:40:59;4.40;;;1.23;;
26502;SDS011;14177;51.520;6.764;2023-03-30T15:43:28;7.45;;;1.23;;
26502;SDS011;14177;51.520;6.764;2023-03-30T15:46:06;5.68;;;1.10;;
26502;SDS011;14177;51.520;6.764;2023-03-30T15:48:42;8.75;;;1.20;;
26502;SDS011;14177;51.520;6.764;2023-03-30T15:53:58;8.97;;;1.90;;
26502;SDS011;14177;51.520;6.764;2023-03-30T15:56:36;14.27;;;1.80;;
26502;SDS011;14177;51.520;6.764;2023-03-30T15:59:15;10.15;;;1.20;;
26502;SDS011;14177;51.520;6.764;2023-03-30T16:01:47;8.52;;;1.60;;
26502;SDS011;14177;51.520;6.764;2023-03-30T16:04:21;7.57;;;1.55;;
26502;SDS011;14177;51.520;6.764;2023-03-30T16:06:50;10.13;;;1.30;;
26502;SDS011;14177;51.520;6.764;2023-03-30T16:09:18;7.53;;;1.70;;
26502;SDS011;14177;51.520;6.764;2023-03-30T16:11:45;9.48;;;1.58;;
26502;SDS011;14177;51.520;6.764;2023-03-30T16:14:13;7.65;;;1.45;;
26502;SDS011;14177;51.520;6.764;2023-03-30T16:16:46;10.02;;;1.70;;
26502;SDS011;14177;51.520;6.764;2023-03-30T16:19:15;6.90;;;1.83;;
26502;SDS011;14177;51.520;6.764;2023-03-30T16:21:45;8.05;;;1.30;;
26502;SDS011;14177;51.520;6.764;2023-03-30T16:24:12;7.68;;;1.73;;
26502;SDS011;14177;51.520;6.764;2023-03-30T16:26:39;11.65;;;1.98;;
26502;SDS011;14177;51.520;6.764;2023-03-30T16:29:13;8.65;;;1.40;;
26502;SDS011;14177;51.520;6.764;2023-03-30T16:31:49;8.43;;;1.85;;
26502;SDS011;14177;51.520;6.764;2023-03-30T16:34:17;10.48;;;1.63;;
26502;SDS011;14177;51.520;6.764;2023-03-30T16:36:47;7.68;;;1.58;;
26502;SDS011;14177;51.520;6.764;2023-03-30T16:41:47;11.43;;;1.85;;
26502;SDS011;14177;51.520;6.764;2023-03-30T16:44:15;11.80;;;1.48;;
26502;SDS011;14177;51.520;6.764;2023-03-30T16:46:44;9.75;;;1.90;;
26502;SDS011;14177;51.520;6.764;2023-03-30T16:49:16;9.27;;;1.60;;
26502;SDS011;14177;51.520;6.764;2023-03-30T16:51:51;9.73;;;1.75;;
26502;SDS011;14177;51.520;6.764;2023-03-30T16:54:23;7.97;;;2.03;;
26502;SDS011;14177;51.520;6.764;2023-03-30T16:56:58;8.30;;;1.73;;
26502;SDS011;14177;51.520;6.764;2023-03-30T16:59:35;9.43;;;2.28;;
26502;SDS011;14177;51.520;6.764;2023-03-30T17:02:12;9.93;;;2.10;;
26502;SDS011;14177;51.520;6.764;2023-03-30T17:04:47;13.43;;;1.90;;
26502;SDS011;14177;51.520;6.764;2023-03-30T17:07:14;7.15;;;2.00;;
26502;SDS011;14177;51.520;6.764;2023-03-30T17:09:42;10.32;;;2.10;;
26502;SDS011;14177;51.520;6.764;2023-03-30T17:12:09;12.98;;;3.10;;
26502;SDS011;14177;51.520;6.764;2023-03-30T17:14:36;10.88;;;3.55;;
26502;SDS011;14177;51.520;6.764;2023-03-30T17:17:08;12.25;;;2.90;;
26502;SDS011;14177;51.520;6.764;2023-03-30T17:19:44;6.25;;;2.40;;
26502;SDS011;14177;51.520;6.764;2023-03-30T17:22:11;7.68;;;2.92;;
26502;SDS011;14177;51.520;6.764;2023-03-30T17:24:38;10.27;;;2.75;;
26502;SDS011;14177;51.520;6.764;2023-03-30T17:27:05;11.38;;;3.35;;
26502;SDS011;14177;51.520;6.764;2023-03-30T17:29:43;13.60;;;3.42;;
26502;SDS011;14177;51.520;6.764;2023-03-30T17:32:10;13.90;;;3.53;;
26502;SDS011;14177;51.520;6.764;2023-03-30T17:34:37;13.82;;;4.35;;
26502;SDS011;14177;51.520;6.764;2023-03-30T17:37:05;7.63;;;2.58;;
26502;SDS011;14177;51.520;6.764;2023-03-30T17:39:34;9.93;;;2.05;;
26502;SDS011;14177;51.520;6.764;2023-03-30T17:42:01;7.95;;;2.92;;
26502;SDS011;14177;51.520;6.764;2023-03-30T17:44:28;6.00;;;2.08;;
26502;SDS011;14177;51.520;6.764;2023-03-30T17:46:55;8.18;;;3.38;;
26502;SDS011;14177;51.520;6.764;2023-03-30T17:49:22;8.80;;;2.78;;
26502;SDS011;14177;51.520;6.764;2023-03-30T17:51:49;8.27;;;2.30;;
26502;SDS011;14177;51.520;6.764;2023-03-30T17:54:17;11.52;;;2.35;;
26502;SDS011;14177;51.520;6.764;2023-03-30T17:56:44;12.55;;;3.40;;
26502;SDS011;14177;51.520;6.764;2023-03-30T17:59:12;15.55;;;5.82;;
26502;SDS011;14177;51.520;6.764;2023-03-30T18:01:39;22.50;;;7.60;;
26502;SDS011;14177;51.520;6.764;2023-03-30T18:04:06;13.70;;;4.25;;
26502;SDS011;14177;51.520;6.764;2023-03-30T18:06:33;12.30;;;4.07;;
26502;SDS011;14177;51.520;6.764;2023-03-30T18:09:01;9.52;;;3.85;;
26502;SDS011;14177;51.520;6.764;2023-03-30T18:11:28;10.20;;;3.00;;
26502;SDS011;14177;51.520;6.764;2023-03-30T18:13:55;13.73;;;3.33;;
26502;SDS011;14177;51.520;6.764;2023-03-30T18:16:22;12.75;;;3.40;;
26502;SDS011;14177;51.520;6.764;2023-03-30T18:18:49;7.95;;;2.97;;
26502;SDS011;14177;51.520;6.764;2023-03-30T18:21:16;10.20;;;2.70;;
26502;SDS011;14177;51.520;6.764;2023-03-30T18:23:43;11.07;;;2.58;;
26502;SDS011;14177;51.520;6.764;2023-03-30T18:26:11;10.20;;;2.60;;
26502;SDS011;14177;51.520;6.764;2023-03-30T18:28:39;11.23;;;2.85;;
26502;SDS011;14177;51.520;6.764;2023-03-30T18:31:08;7.03;;;1.90;;
26502;SDS011;14177;51.520;6.764;2023-03-30T18:33:36;8.32;;;2.00;;
26502;SDS011;14177;51.520;6.764;2023-03-30T18:36:04;6.60;;;2.03;;
26502;SDS011;14177;51.520;6.764;2023-03-30T18:38:40;7.68;;;2.38;;
26502;SDS011;14177;51.520;6.764;2023-03-30T18:41:08;6.15;;;1.88;;
26502;SDS011;14177;51.520;6.764;2023-03-30T18:43:37;4.97;;;2.00;;